Time;durP1;ratioP1;P1;durP2;ratioP2;P2;SDS_P1;SDS_P2;PMS_P1;PMS_P2;Temp;Humidity;BMP_temperature;BMP_pressure;BME280_temperature;BME280_humidity;BME280_pressure;Samples;Min_cycle;Max_cycle;Signal;HPM_P1;HPM_P2
2022/07/15 00:01:54;;;;;;;2.90;1.20;;;15.90;99.90;;;;;;5022593;28;20483;-79
2022/07/15 00:04:20;;;;;;;5.22;1.30;;;15.90;99.90;;;;;;5037179;28;20055;-80
2022/07/15 00:06:46;;;;;;;5.07;1.25;;;16.00;99.90;;;;;;4986662;28;20041;-80
2022/07/15 00:09:12;;;;;;;6.70;1.25;;;16.00;99.90;;;;;;5016953;28;20098;-79
2022/07/15 00:11:37;;;;;;;2.38;1.05;;;16.00;99.90;;;;;;5000811;28;20052;-80
2022/07/15 00:14:03;;;;;;;6.47;1.65;;;16.00;99.90;;;;;;4989711;28;20081;-81
2022/07/15 00:16:29;;;;;;;6.00;1.40;;;16.00;99.90;;;;;;5026159;28;20044;-81
2022/07/15 00:18:55;;;;;;;4.35;1.10;;;16.10;99.90;;;;;;5022610;28;20468;-80
2022/07/15 00:21:20;;;;;;;5.47;1.50;;;16.10;99.90;;;;;;5027587;28;20056;-80
2022/07/15 00:23:46;;;;;;;3.38;1.08;;;16.10;99.90;;;;;;5043773;28;20119;-80
2022/07/15 00:26:12;;;;;;;6.00;1.50;;;16.10;99.90;;;;;;5017932;28;20110;-80
2022/07/15 00:28:38;;;;;;;4.55;1.10;;;15.80;99.90;;;;;;5027146;28;20048;-80
2022/07/15 00:31:03;;;;;;;5.32;1.08;;;16.10;99.90;;;;;;5043457;28;20059;-80
2022/07/15 00:33:29;;;;;;;4.93;1.20;;;16.10;99.90;;;;;;5007303;28;20053;-81
2022/07/15 00:35:55;;;;;;;2.90;1.10;;;16.10;99.90;;;;;;5011045;28;20527;-80
2022/07/15 00:38:25;;;;;;;4.07;1.20;;;16.00;99.90;;;;;;5024785;28;20102;-81
2022/07/15 00:40:51;;;;;;;4.05;1.20;;;16.00;99.90;;;;;;5021258;28;20518;-80
2022/07/15 00:43:18;;;;;;;4.45;1.23;;;16.00;99.90;;;;;;5027467;28;20057;-80
2022/07/15 00:45:45;;;;;;;4.45;0.90;;;16.00;99.90;;;;;;5043418;28;20045;-80
2022/07/15 00:48:11;;;;;;;5.10;1.00;;;15.90;99.90;;;;;;5010463;28;20044;-80
2022/07/15 00:50:37;;;;;;;5.47;1.50;;;15.90;99.90;;;;;;5010414;28;20530;-80
2022/07/15 00:53:07;;;;;;;5.18;1.00;;;15.80;99.90;;;;;;5022547;28;20080;-79
2022/07/15 00:55:41;;;;;;;2.72;1.10;;;16.40;99.90;;;;;;5030123;28;20102;-79
2022/07/15 00:58:10;;;;;;;3.60;1.27;;;15.80;99.90;;;;;;5024426;28;20056;-79
2022/07/15 01:00:36;;;;;;;3.80;0.98;;;15.80;99.90;;;;;;5042216;28;20041;-80
2022/07/15 01:03:02;;;;;;;6.35;1.42;;;15.70;99.90;;;;;;5030236;28;20415;-80
2022/07/15 01:05:29;;;;;;;5.63;1.08;;;15.70;99.90;;;;;;5025706;28;20040;-81
2022/07/15 01:07:55;;;;;;;4.05;1.17;;;15.70;99.90;;;;;;5042297;28;20066;-80
2022/07/15 01:10:23;;;;;;;4.60;0.90;;;15.70;99.90;;;;;;5021700;28;20491;-80
2022/07/15 01:12:50;;;;;;;3.10;0.80;;;15.80;99.90;;;;;;5019776;28;20052;-80
2022/07/15 01:15:17;;;;;;;3.58;0.88;;;15.70;99.90;;;;;;5041475;28;20044;-80
2022/07/15 01:17:44;;;;;;;4.38;0.90;;;15.70;99.90;;;;;;5044207;28;20048;-80
2022/07/15 01:20:12;;;;;;;3.53;0.95;;;15.70;99.90;;;;;;5026077;28;20048;-80
2022/07/15 01:22:38;;;;;;;8.63;1.05;;;15.70;99.90;;;;;;5025295;28;20044;-80
2022/07/15 01:25:04;;;;;;;3.13;1.00;;;15.70;99.90;;;;;;5033513;28;20099;-80
2022/07/15 01:27:30;;;;;;;3.55;0.90;;;15.60;99.90;;;;;;5025630;28;20047;-80
2022/07/15 01:29:55;;;;;;;3.80;0.93;;;15.60;99.90;;;;;;5025172;28;20045;-80
2022/07/15 01:32:21;;;;;;;3.47;0.85;;;15.50;99.90;;;;;;5007662;28;20071;-80
2022/07/15 01:34:49;;;;;;;2.50;0.77;;;15.50;99.90;;;;;;5025616;28;20453;-79
2022/07/15 01:37:16;;;;;;;4.70;0.93;;;15.50;99.90;;;;;;5028033;28;20045;-80
2022/07/15 01:39:43;;;;;;;2.10;0.80;;;15.50;99.90;;;;;;5050891;28;20083;-80
2022/07/15 01:42:08;;;;;;;3.15;0.60;;;15.40;99.90;;;;;;5027915;28;20052;-80
2022/07/15 01:44:34;;;;;;;2.35;0.63;;;15.40;99.90;;;;;;5043078;28;20105;-80
2022/07/15 01:47:01;;;;;;;2.92;0.88;;;15.40;99.90;;;;;;5042858;28;20496;-80
2022/07/15 01:49:26;;;;;;;2.85;0.60;;;15.30;99.90;;;;;;5027877;28;20049;-81
2022/07/15 01:51:57;;;;;;;1.67;0.90;;;15.30;99.90;;;;;;5023786;28;20059;-80
2022/07/15 01:54:24;;;;;;;3.60;0.90;;;15.30;99.90;;;;;;5041969;28;20055;-80
2022/07/15 01:56:51;;;;;;;3.83;0.70;;;15.30;99.90;;;;;;5022819;28;20049;-78
2022/07/15 01:59:17;;;;;;;1.63;0.60;;;15.20;99.90;;;;;;5026422;28;20048;-79
2022/07/15 02:01:44;;;;;;;3.17;0.70;;;15.20;99.90;;;;;;5007408;28;20051;-79
2022/07/15 02:04:10;;;;;;;1.27;0.50;;;15.20;99.90;;;;;;5040720;28;20053;-79
2022/07/15 02:06:36;;;;;;;5.15;0.73;;;15.20;99.90;;;;;;5005409;28;20178;-80
2022/07/15 02:09:02;;;;;;;4.10;0.70;;;15.10;99.90;;;;;;5025426;28;20147;-80
2022/07/15 02:11:28;;;;;;;1.80;0.70;;;15.10;99.90;;;;;;5007894;28;20049;-80
2022/07/15 02:13:58;;;;;;;2.17;0.85;;;15.10;99.90;;;;;;5025134;28;20051;-80
2022/07/15 02:16:24;;;;;;;1.20;0.60;;;15.10;99.90;;;;;;5024527;28;20056;-80
2022/07/15 02:18:50;;;;;;;1.63;0.63;;;15.10;99.90;;;;;;5026380;28;20065;-80
2022/07/15 02:21:16;;;;;;;1.48;0.60;;;15.10;99.90;;;;;;5026158;28;20129;-80
2022/07/15 02:23:42;;;;;;;2.58;0.57;;;15.10;99.90;;;;;;5042714;28;20508;-80
2022/07/15 02:26:08;;;;;;;2.50;0.50;;;15.10;99.90;;;;;;5041049;28;20044;-79
2022/07/15 02:28:34;;;;;;;1.55;0.50;;;15.00;99.90;;;;;;5024453;28;20502;-80
2022/07/15 02:30:59;;;;;;;1.02;0.43;;;15.00;99.90;;;;;;5022905;28;20488;-81
2022/07/15 02:33:25;;;;;;;1.25;0.47;;;15.00;99.90;;;;;;5032244;28;20141;-80
2022/07/15 02:35:51;;;;;;;1.77;0.60;;;15.00;99.90;;;;;;5025895;28;20049;-79
2022/07/15 02:38:17;;;;;;;1.63;0.57;;;15.00;99.90;;;;;;5039086;28;20059;-80
2022/07/15 02:40:43;;;;;;;3.58;0.52;;;14.90;99.90;;;;;;5009657;28;20055;-80
2022/07/15 02:43:09;;;;;;;1.17;0.50;;;14.90;99.90;;;;;;5038868;28;20090;-80
2022/07/15 02:45:36;;;;;;;0.57;0.43;;;14.80;99.90;;;;;;5007883;28;20553;-80
2022/07/15 02:48:03;;;;;;;1.65;0.40;;;14.80;99.90;;;;;;5030616;28;20045;-79
2022/07/15 02:50:30;;;;;;;1.48;0.50;;;14.80;99.90;;;;;;5032982;28;20045;-80
2022/07/15 02:52:55;;;;;;;1.17;0.63;;;14.70;99.90;;;;;;5036686;28;20117;-80
2022/07/15 02:55:21;;;;;;;0.60;0.45;;;14.70;99.90;;;;;;5008606;28;20083;-81
2022/07/15 02:57:47;;;;;;;2.45;0.50;;;14.70;99.90;;;;;;5006683;28;20116;-80
2022/07/15 03:00:17;;;;;;;1.23;0.57;;;14.60;99.90;;;;;;5024852;28;20809;-80
2022/07/15 03:02:44;;;;;;;0.75;0.60;;;14.60;99.90;;;;;;5035170;28;20121;-81
2022/07/15 03:05:11;;;;;;;1.75;0.55;;;14.60;99.90;;;;;;5024910;28;20048;-80
2022/07/15 03:07:37;;;;;;;2.63;0.55;;;14.50;99.90;;;;;;5039256;28;20097;-80
2022/07/15 03:10:05;;;;;;;0.80;0.40;;;14.50;99.90;;;;;;5009130;28;20151;-80
2022/07/15 03:12:31;;;;;;;1.05;0.60;;;14.50;99.90;;;;;;5019707;28;20044;-81
2022/07/15 03:14:57;;;;;;;0.98;0.73;;;14.50;99.90;;;;;;5027325;28;20071;-80
2022/07/15 03:17:23;;;;;;;1.38;0.50;;;14.50;99.90;;;;;;5012254;28;20049;-79
2022/07/15 03:19:49;;;;;;;2.05;0.60;;;14.50;99.90;;;;;;5030685;28;20964;-81
2022/07/15 03:22:15;;;;;;;1.30;0.60;;;14.50;99.90;;;;;;5028172;28;20059;-80
2022/07/15 03:24:41;;;;;;;1.35;0.60;;;14.50;99.90;;;;;;5011850;28;20044;-78
2022/07/15 03:27:08;;;;;;;1.42;0.60;;;14.50;99.90;;;;;;5010613;28;20608;-80
2022/07/15 03:29:35;;;;;;;0.80;0.40;;;14.50;99.90;;;;;;5032653;28;20049;-80
2022/07/15 03:32:01;;;;;;;3.08;0.80;;;14.50;99.90;;;;;;5041018;28;20414;-80
2022/07/15 03:34:27;;;;;;;2.40;0.60;;;14.50;99.90;;;;;;4990921;28;20118;-80
2022/07/15 03:36:54;;;;;;;1.70;0.70;;;14.50;99.90;;;;;;5008619;28;20045;-81
2022/07/15 03:39:21;;;;;;;1.27;0.68;;;14.50;99.90;;;;;;5024567;28;20044;-80
2022/07/15 03:41:46;;;;;;;1.27;0.57;;;14.50;99.90;;;;;;5025730;28;20212;-80
2022/07/15 03:44:13;;;;;;;2.67;0.60;;;14.50;99.90;;;;;;5002957;28;20534;-80
2022/07/15 03:46:39;;;;;;;1.63;0.50;;;14.50;99.90;;;;;;5020798;28;20128;-81
2022/07/15 03:49:05;;;;;;;1.50;0.60;;;14.50;99.90;;;;;;5024055;28;20574;-80
2022/07/15 03:51:31;;;;;;;3.72;0.73;;;14.50;99.90;;;;;;5023460;28;20073;-81
2022/07/15 03:54:01;;;;;;;1.10;0.65;;;14.50;99.90;;;;;;5037831;28;20033;-81
2022/07/15 03:56:29;;;;;;;2.80;0.70;;;14.60;99.90;;;;;;5022547;28;20044;-80
2022/07/15 03:58:55;;;;;;;2.35;0.70;;;14.50;99.90;;;;;;5037186;28;20056;-81
2022/07/15 04:01:21;;;;;;;1.98;0.70;;;14.50;99.90;;;;;;5024550;28;20045;-80
2022/07/15 04:03:48;;;;;;;1.92;0.57;;;14.60;99.90;;;;;;5022302;28;20056;-80
2022/07/15 04:06:15;;;;;;;1.25;0.52;;;14.50;99.90;;;;;;5022790;28;20049;-79
2022/07/15 04:08:42;;;;;;;1.35;0.70;;;14.50;99.90;;;;;;5039157;28;20040;-81
2022/07/15 04:11:09;;;;;;;1.08;0.55;;;14.50;99.90;;;;;;5024912;28;20097;-80
2022/07/15 04:13:34;;;;;;;1.73;0.70;;;14.50;99.90;;;;;;5038372;28;20134;-81
2022/07/15 04:16:00;;;;;;;2.80;0.60;;;14.60;99.90;;;;;;5007479;28;20514;-80
2022/07/15 04:18:26;;;;;;;1.45;0.55;;;14.60;99.90;;;;;;5023857;28;20048;-80
2022/07/15 04:20:52;;;;;;;2.03;0.70;;;14.60;99.90;;;;;;5007086;28;20052;-81
2022/07/15 04:23:18;;;;;;;1.75;0.68;;;14.60;99.90;;;;;;5022950;28;20056;-80
2022/07/15 04:25:43;;;;;;;3.08;0.60;;;14.60;99.90;;;;;;5007626;28;20080;-80
2022/07/15 04:28:12;;;;;;;0.95;0.60;;;14.70;99.90;;;;;;5022083;28;20052;-79
2022/07/15 04:30:38;;;;;;;1.98;0.60;;;14.70;99.90;;;;;;5007492;28;20041;-80
2022/07/15 04:33:03;;;;;;;2.70;0.90;;;14.80;99.90;;;;;;5007775;28;20048;-79
2022/07/15 04:35:29;;;;;;;2.83;0.95;;;14.80;99.90;;;;;;5039464;28;20040;-80
2022/07/15 04:37:55;;;;;;;1.95;0.70;;;14.90;99.90;;;;;;5024778;28;20040;-81
2022/07/15 04:40:21;;;;;;;2.90;0.95;;;14.90;99.90;;;;;;5007730;28;20052;-80
2022/07/15 04:42:47;;;;;;;3.22;0.60;;;15.00;99.90;;;;;;5023550;28;20116;-80
2022/07/15 04:45:13;;;;;;;5.22;1.00;;;15.10;99.90;;;;;;5005945;28;20049;-81
2022/07/15 04:47:39;;;;;;;7.53;1.30;;;15.10;99.90;;;;;;5023545;28;20067;-81
2022/07/15 04:52:53;;;;;;;3.72;0.75;;;15.20;99.90;;;;;;5038310;28;20961;-80
2022/07/15 04:55:18;;;;;;;3.60;1.20;;;15.30;99.90;;;;;;5036915;28;20580;-80
2022/07/15 04:57:44;;;;;;;5.47;0.90;;;15.30;99.90;;;;;;5007882;28;20135;-80
2022/07/15 05:00:10;;;;;;;2.70;1.40;;;15.50;99.90;;;;;;5024477;28;20396;-80
2022/07/15 05:02:39;;;;;;;2.78;0.80;;;15.40;99.90;;;;;;5044169;28;20090;-80
2022/07/15 05:05:07;;;;;;;3.10;0.95;;;15.50;99.90;;;;;;5025616;28;20075;-79
2022/07/15 05:07:32;;;;;;;3.33;0.82;;;15.50;99.90;;;;;;5011626;28;20041;-79
2022/07/15 05:09:58;;;;;;;5.05;0.95;;;15.60;99.90;;;;;;5025599;28;20506;-80
2022/07/15 05:12:24;;;;;;;2.70;0.65;;;15.70;99.90;;;;;;5011521;28;20052;-82
2022/07/15 05:14:49;;;;;;;2.10;0.80;;;15.80;99.90;;;;;;5026467;28;20048;-80
2022/07/15 05:17:15;;;;;;;2.40;0.60;;;15.90;99.90;;;;;;5026866;28;20570;-80
2022/07/15 05:19:41;;;;;;;3.13;0.70;;;15.90;99.90;;;;;;5042397;28;20059;-81
2022/07/15 05:22:06;;;;;;;2.72;0.70;;;16.00;99.90;;;;;;4994329;28;20048;-80
2022/07/15 05:24:32;;;;;;;1.85;0.70;;;16.10;99.90;;;;;;5022666;28;20101;-80
2022/07/15 05:26:59;;;;;;;5.38;0.90;;;16.20;99.90;;;;;;5025999;28;20079;-80
2022/07/15 05:29:25;;;;;;;7.28;1.00;;;16.20;99.90;;;;;;5008876;28;20056;-80
2022/07/15 05:31:51;;;;;;;3.67;0.98;;;16.30;99.90;;;;;;5025381;28;20052;-80
2022/07/15 05:34:17;;;;;;;1.50;0.50;;;16.30;99.90;;;;;;5024524;28;20051;-82
2022/07/15 05:36:44;;;;;;;2.78;0.88;;;16.30;99.90;;;;;;5022387;28;20068;-82
2022/07/15 05:39:09;;;;;;;2.58;0.70;;;16.40;99.90;;;;;;5010690;28;20981;-80
2022/07/15 05:41:35;;;;;;;2.95;0.63;;;16.40;99.90;;;;;;5011472;28;20127;-80
2022/07/15 05:44:01;;;;;;;2.45;0.80;;;16.40;99.90;;;;;;5041790;28;20053;-80
2022/07/15 05:46:27;;;;;;;2.95;0.80;;;16.50;99.90;;;;;;5040871;28;20055;-80
2022/07/15 05:48:53;;;;;;;5.38;1.00;;;16.50;99.90;;;;;;5025746;28;20064;-80
2022/07/15 05:51:19;;;;;;;1.80;0.70;;;16.60;99.90;;;;;;5023482;28;20380;-80
2022/07/15 05:53:45;;;;;;;2.97;0.65;;;16.60;99.90;;;;;;5039749;28;20049;-79
2022/07/15 05:56:11;;;;;;;3.00;0.60;;;16.60;99.90;;;;;;5039367;28;20075;-81
2022/07/15 05:58:37;;;;;;;9.25;1.27;;;16.60;99.90;;;;;;5026557;28;20079;-79
2022/07/15 06:01:03;;;;;;;2.70;0.90;;;16.60;99.90;;;;;;5027338;28;20044;-79
2022/07/15 06:03:29;;;;;;;2.40;0.70;;;16.70;99.90;;;;;;5027170;28;20076;-79
2022/07/15 06:05:55;;;;;;;3.05;0.68;;;16.70;99.90;;;;;;5021682;28;20044;-80
2022/07/15 06:08:21;;;;;;;5.28;0.80;;;16.80;99.90;;;;;;5043281;28;20101;-81
2022/07/15 06:10:47;;;;;;;3.08;0.77;;;16.80;99.90;;;;;;5008269;28;20041;-81
2022/07/15 06:13:13;;;;;;;3.92;0.77;;;16.80;99.90;;;;;;4991474;28;20045;-80
2022/07/15 06:15:39;;;;;;;8.13;1.00;;;16.90;99.90;;;;;;5009094;28;20463;-80
2022/07/15 06:18:04;;;;;;;9.85;1.10;;;16.90;99.90;;;;;;5025971;28;20078;-82
2022/07/15 06:20:30;;;;;;;4.60;0.70;;;17.00;99.90;;;;;;5025259;28;20182;-81
2022/07/15 06:22:57;;;;;;;4.15;0.52;;;17.00;99.90;;;;;;5015630;28;20117;-83
2022/07/15 06:25:22;;;;;;;2.45;0.68;;;17.10;99.90;;;;;;5042689;28;20481;-80
2022/07/15 06:27:48;;;;;;;3.60;0.52;;;17.30;99.90;;;;;;5023987;28;20076;-81
2022/07/15 06:30:14;;;;;;;2.20;0.65;;;17.30;99.90;;;;;;5002030;28;20140;-80
2022/07/15 06:32:40;;;;;;;0.98;0.60;;;17.40;99.90;;;;;;5025876;28;20068;-79
2022/07/15 06:35:07;;;;;;;2.20;0.60;;;17.40;99.90;;;;;;5037339;28;20083;-79
2022/07/15 06:37:33;;;;;;;2.85;0.60;;;17.40;99.90;;;;;;5016867;28;20060;-80
2022/07/15 06:39:59;;;;;;;2.95;0.63;;;17.40;99.90;;;;;;5024010;28;20048;-80
2022/07/15 06:42:25;;;;;;;1.98;0.52;;;17.40;99.90;;;;;;5023509;28;20064;-80
2022/07/15 06:44:51;;;;;;;1.80;0.55;;;17.50;99.90;;;;;;5039105;28;20053;-81
2022/07/15 06:47:16;;;;;;;3.03;0.55;;;17.60;99.90;;;;;;5038987;28;20136;-81
2022/07/15 06:49:42;;;;;;;2.45;0.50;;;17.80;99.90;;;;;;5024113;28;20052;-81
2022/07/15 06:52:08;;;;;;;1.95;0.50;;;18.00;99.90;;;;;;4993211;28;20040;-82
2022/07/15 06:54:34;;;;;;;1.63;0.60;;;18.10;99.90;;;;;;5025339;28;20044;-81
2022/07/15 06:57:01;;;;;;;1.15;0.60;;;18.20;99.90;;;;;;5026642;28;20048;-80
2022/07/15 06:59:27;;;;;;;1.60;0.57;;;18.30;99.90;;;;;;5021924;28;20055;-81
2022/07/15 07:01:53;;;;;;;2.97;0.45;;;18.50;99.90;;;;;;5020859;28;20088;-82
2022/07/15 07:04:19;;;;;;;1.92;0.50;;;18.70;99.90;;;;;;5042166;28;20472;-82
2022/07/15 07:06:45;;;;;;;2.65;0.70;;;18.80;99.90;;;;;;5023472;28;20123;-80
2022/07/15 07:09:14;;;;;;;1.48;0.68;;;18.80;99.90;;;;;;5023719;28;20507;-80
2022/07/15 07:11:40;;;;;;;1.85;0.60;;;18.80;99.90;;;;;;5008252;28;20051;-80
2022/07/15 07:14:06;;;;;;;2.58;0.68;;;18.90;99.90;;;;;;5023340;28;20053;-80
2022/07/15 07:16:32;;;;;;;2.22;0.60;;;18.90;99.90;;;;;;5025420;28;20055;-80
2022/07/15 07:18:59;;;;;;;1.33;0.50;;;19.00;99.90;;;;;;5022298;28;20047;-80
2022/07/15 07:21:25;;;;;;;4.55;0.68;;;19.30;99.90;;;;;;5022506;28;20454;-80
2022/07/15 07:23:50;;;;;;;2.42;0.57;;;19.40;99.90;;;;;;5020606;28;20056;-81
2022/07/15 07:26:17;;;;;;;2.28;0.50;;;19.30;99.90;;;;;;5009071;28;20078;-82
2022/07/15 07:28:43;;;;;;;3.08;0.70;;;19.40;99.90;;;;;;5037877;28;20415;-81
2022/07/15 07:31:13;;;;;;;1.05;0.50;;;19.40;99.90;;;;;;5022796;28;20128;-81
2022/07/15 07:33:39;;;;;;;1.58;0.52;;;19.50;99.90;;;;;;5020461;28;20048;-80
2022/07/15 07:36:06;;;;;;;1.08;0.80;;;19.50;99.90;;;;;;5019727;28;20044;-83
2022/07/15 07:38:36;;;;;;;1.13;0.30;;;19.40;99.90;;;;;;5020776;28;20076;-81
2022/07/15 07:41:03;;;;;;;2.22;0.50;;;19.40;99.90;;;;;;5005602;28;20110;-81
2022/07/15 07:43:29;;;;;;;1.48;0.45;;;19.40;99.90;;;;;;5000646;28;20536;-82
2022/07/15 07:45:55;;;;;;;1.50;0.60;;;19.50;99.90;;;;;;5022534;28;20044;-83
2022/07/15 07:48:21;;;;;;;2.38;0.40;;;19.50;99.90;;;;;;5001919;28;20039;-81
2022/07/15 07:50:47;;;;;;;1.95;0.50;;;19.70;99.90;;;;;;5021564;28;20043;-83
2022/07/15 07:53:13;;;;;;;3.03;0.75;;;19.80;99.90;;;;;;5004944;28;20102;-81
2022/07/15 07:55:39;;;;;;;3.88;0.70;;;19.80;99.90;;;;;;5021867;28;20064;-82
2022/07/15 07:58:05;;;;;;;2.47;0.57;;;19.70;99.90;;;;;;5006113;28;20483;-83
2022/07/15 08:00:32;;;;;;;1.50;0.57;;;19.80;99.90;;;;;;5022803;28;20049;-82
2022/07/15 08:02:59;;;;;;;1.17;0.40;;;20.00;99.90;;;;;;5036861;28;20041;-82
2022/07/15 08:05:26;;;;;;;3.10;0.90;;;20.10;99.90;;;;;;5025365;28;20044;-82
2022/07/15 08:08:11;;;;;;;1.23;0.47;;;20.10;99.90;;;;;;5037011;28;20055;-80
2022/07/15 08:10:37;;;;;;;2.53;0.40;;;20.20;99.90;;;;;;5037347;28;20105;-82
2022/07/15 08:13:03;;;;;;;1.50;0.50;;;20.20;99.90;;;;;;5005169;28;20198;-82
2022/07/15 08:15:32;;;;;;;1.23;0.57;;;20.20;99.90;;;;;;5008704;28;20139;-85
2022/07/15 08:17:57;;;;;;;1.33;0.50;;;20.10;99.90;;;;;;5007139;28;20045;-85
2022/07/15 08:20:23;;;;;;;2.10;0.50;;;20.10;99.90;;;;;;5007404;28;20052;-81
2022/07/15 08:22:50;;;;;;;4.82;1.33;;;20.00;99.90;;;;;;5014661;28;20088;-82
2022/07/15 08:25:15;;;;;;;1.33;0.50;;;20.10;99.90;;;;;;5023470;28;20048;-82
2022/07/15 08:27:41;;;;;;;1.13;0.50;;;20.20;99.90;;;;;;5023052;28;20056;-82
2022/07/15 08:30:07;;;;;;;1.77;0.60;;;20.40;99.90;;;;;;5007621;28;20041;-84
2022/07/15 08:32:33;;;;;;;5.25;0.52;;;20.50;99.90;;;;;;5040697;28;20158;-83
2022/07/15 08:34:59;;;;;;;1.85;0.45;;;20.70;99.90;;;;;;5015271;28;20086;-83
2022/07/15 08:37:27;;;;;;;2.30;0.45;;;20.90;99.90;;;;;;5028199;28;20040;-83
2022/07/15 08:39:53;;;;;;;1.35;0.60;;;20.90;99.90;;;;;;5033654;28;20406;-84
2022/07/15 08:42:25;;;;;;;0.80;0.40;;;21.10;99.90;;;;;;5011964;28;20044;-84
2022/07/15 08:44:53;;;;;;;1.02;0.40;;;21.50;99.90;;;;;;5010768;28;20051;-84
2022/07/15 08:47:22;;;;;;;1.58;0.40;;;21.60;99.80;;;;;;5008384;28;20476;-83
2022/07/15 08:49:50;;;;;;;0.93;0.30;;;21.70;99.30;;;;;;5027307;28;20522;-84
2022/07/15 08:52:17;;;;;;;0.98;0.30;;;21.50;98.90;;;;;;5042747;28;20056;-83
2022/07/15 08:54:42;;;;;;;1.35;0.50;;;21.30;99.10;;;;;;5045840;28;20051;-85
2022/07/15 08:57:08;;;;;;;1.35;0.50;;;21.30;99.40;;;;;;5002941;28;20647;-82
2022/07/15 08:59:34;;;;;;;0.80;0.40;;;21.40;99.50;;;;;;4994058;28;20056;-79
2022/07/15 09:02:00;;;;;;;1.23;0.43;;;21.40;98.80;;;;;;5042113;28;20045;-80
2022/07/15 09:04:26;;;;;;;1.63;0.60;;;21.30;99.00;;;;;;5009673;28;20499;-80
2022/07/15 09:06:51;;;;;;;2.13;0.45;;;21.30;99.20;;;;;;4992184;28;20041;-81
2022/07/15 09:09:34;;;;;;;1.05;0.40;;;21.30;99.20;;;;;;5028216;28;20048;-81
2022/07/15 09:12:07;;;;;;;0.85;0.30;;;21.50;98.80;;;;;;5040667;28;20495;-81
2022/07/15 09:14:35;;;;;;;2.38;0.50;;;21.30;98.10;;;;;;5044755;28;20053;-82
2022/07/15 09:17:10;;;;;;;1.10;0.47;;;21.50;98.40;;;;;;5042082;28;20814;-81
2022/07/15 09:19:57;;;;;;;6.83;0.73;;;21.50;98.30;;;;;;5027318;28;20053;-80
2022/07/15 09:22:25;;;;;;;1.75;0.90;;;21.50;98.60;;;;;;5038424;28;20136;-80
2022/07/15 09:25:11;;;;;;;1.63;0.50;;;21.60;98.70;;;;;;5022849;28;20036;-79
2022/07/15 09:27:40;;;;;;;1.63;0.60;;;21.90;97.90;;;;;;5038014;28;20475;-81
2022/07/15 09:36:03;;;;;;;2.40;0.70;;;21.90;98.30;;;;;;5040666;28;20084;-79
2022/07/15 09:38:41;;;;;;;1.73;0.50;;;21.90;98.50;;;;;;5010224;28;20049;-81
2022/07/15 09:41:09;;;;;;;2.85;0.70;;;22.10;98.50;;;;;;5017486;28;20051;-82
2022/07/15 09:43:52;;;;;;;1.92;0.70;;;22.20;98.40;;;;;;5033951;28;20106;-82
2022/07/15 09:46:19;;;;;;;3.25;0.60;;;22.20;98.40;;;;;;5018265;28;20075;-82
2022/07/15 09:48:47;;;;;;;1.58;0.60;;;22.30;98.70;;;;;;5010396;28;20047;-81
2022/07/15 09:51:14;;;;;;;1.58;0.45;;;22.50;98.60;;;;;;5035480;28;20040;-82
2022/07/15 09:53:40;;;;;;;2.92;0.60;;;22.40;98.50;;;;;;5036463;28;20040;-82
2022/07/15 09:56:13;;;;;;;1.08;0.43;;;22.30;98.40;;;;;;5022473;28;20048;-81
2022/07/15 09:58:41;;;;;;;4.28;0.73;;;21.90;98.90;;;;;;5024698;28;20055;-81
2022/07/15 10:01:08;;;;;;;1.58;0.60;;;21.50;99.20;;;;;;5025954;28;20416;-82
2022/07/15 10:03:35;;;;;;;2.22;0.82;;;21.10;99.50;;;;;;5006666;28;20056;-81
2022/07/15 10:06:02;;;;;;;2.05;0.52;;;20.90;99.90;;;;;;5025322;28;20097;-82
2022/07/15 10:08:29;;;;;;;2.78;0.63;;;20.70;99.90;;;;;;5022404;28;20041;-82
2022/07/15 10:10:56;;;;;;;2.13;0.60;;;20.40;99.90;;;;;;5022550;28;20451;-82
2022/07/15 10:13:44;;;;;;;2.80;0.85;;;20.30;99.90;;;;;;5018249;28;20113;-81
2022/07/15 10:16:12;;;;;;;0.90;0.50;;;20.30;99.90;;;;;;5040932;28;20053;-83
2022/07/15 10:18:46;;;;;;;2.35;0.88;;;20.40;99.90;;;;;;5040657;28;20045;-80
2022/07/15 10:21:24;;;;;;;1.10;0.50;;;20.50;99.90;;;;;;5037218;28;20071;-80
2022/07/15 10:24:08;;;;;;;3.17;1.00;;;20.60;99.90;;;;;;5021392;28;20048;-81
2022/07/15 10:27:03;;;;;;;3.33;0.80;;;20.80;99.90;;;;;;5039005;28;20565;-80
2022/07/15 10:29:32;;;;;;;2.22;0.73;;;21.00;99.90;;;;;;5035947;28;20060;-84
2022/07/15 10:32:00;;;;;;;3.97;1.15;;;21.10;99.90;;;;;;5039597;28;20045;-80
2022/07/15 10:34:33;;;;;;;2.28;0.95;;;21.20;99.90;;;;;;5026532;28;20045;-79
2022/07/15 10:37:06;;;;;;;2.15;0.85;;;21.40;99.90;;;;;;5038930;28;20049;-80
2022/07/15 10:39:51;;;;;;;1.75;0.60;;;21.40;99.90;;;;;;5026002;28;20111;-80
2022/07/15 10:42:18;;;;;;;3.97;0.85;;;21.30;99.90;;;;;;5039498;28;20156;-76
2022/07/15 10:45:10;;;;;;;1.23;0.57;;;21.50;99.90;;;;;;5054978;28;20076;-80
2022/07/15 10:47:36;;;;;;;2.53;0.80;;;21.80;99.90;;;;;;5018434;28;20053;-85
2022/07/15 10:50:35;;;;;;;2.88;0.80;;;21.90;99.90;;;;;;5023651;28;20051;-85
2022/07/15 10:53:21;;;;;;;2.40;0.80;;;22.20;99.90;;;;;;5023586;28;20040;-88
2022/07/15 10:55:47;;;;;;;;;;;22.60;99.90;;;;;;5018169;28;20135;-83
2022/07/15 10:58:16;;;;;;;1.70;0.63;;;23.00;99.90;;;;;;5039864;28;19943;-85
2022/07/15 11:00:43;;;;;;;2.20;0.70;;;23.30;99.80;;;;;;5038360;28;20625;-84
2022/07/15 11:03:20;;;;;;;3.03;0.90;;;23.40;99.10;;;;;;5025453;28;20091;-84
2022/07/15 11:05:48;;;;;;;2.25;0.70;;;23.50;98.40;;;;;;5011281;28;20044;-84
2022/07/15 11:08:36;;;;;;;1.67;0.70;;;23.40;98.90;;;;;;5038063;28;20139;-84
2022/07/15 11:11:14;;;;;;;3.67;0.70;;;23.70;97.90;;;;;;5009822;28;20511;-86
2022/07/15 11:13:48;;;;;;;1.10;0.50;;;23.80;97.60;;;;;;5035855;28;20138;-80
2022/07/15 11:16:17;;;;;;;2.92;1.20;;;23.60;97.60;;;;;;5019219;28;20127;-81
2022/07/15 11:18:49;;;;;;;2.05;0.73;;;23.40;98.00;;;;;;5023836;28;20478;-81
2022/07/15 11:21:15;;;;;;;3.58;0.77;;;23.40;98.40;;;;;;5023999;28;20535;-81
2022/07/15 11:23:46;;;;;;;2.10;0.73;;;23.60;98.70;;;;;;5038813;28;20147;-81
2022/07/15 11:26:11;;;;;;;4.00;0.73;;;23.40;98.70;;;;;;5020232;28;20051;-81
2022/07/15 11:28:37;;;;;;;2.20;0.70;;;23.50;98.60;;;;;;5000770;28;20045;-81
2022/07/15 11:31:03;;;;;;;2.38;0.90;;;23.70;98.40;;;;;;5029183;28;20131;-81
2022/07/15 11:33:30;;;;;;;1.73;0.63;;;23.90;97.80;;;;;;4987200;28;20134;-81
2022/07/15 11:36:00;;;;;;;2.58;0.93;;;24.10;97.60;;;;;;5019264;28;20056;-81
2022/07/15 11:38:36;;;;;;;1.88;0.65;;;23.90;97.40;;;;;;5052919;28;20141;-81
2022/07/15 11:46:45;;;;;;;1.50;0.70;;;23.30;97.30;;;;;;5037345;28;20049;-83
2022/07/15 11:49:11;;;;;;;3.85;1.08;;;23.50;97.60;;;;;;5026113;28;20122;-82
2022/07/15 11:51:37;;;;;;;2.80;0.90;;;23.60;97.40;;;;;;5002685;28;20048;-83
2022/07/15 11:54:03;;;;;;;1.88;0.60;;;23.80;96.90;;;;;;5000817;28;20056;-83
2022/07/15 11:56:29;;;;;;;1.27;0.63;;;24.20;96.60;;;;;;5022965;28;20045;-81
2022/07/15 11:58:56;;;;;;;1.73;0.80;;;24.30;95.70;;;;;;5022170;28;20091;-82
2022/07/15 12:01:26;;;;;;;2.88;0.75;;;24.20;95.50;;;;;;5021586;28;20381;-81
2022/07/15 12:03:53;;;;;;;1.70;0.68;;;24.20;95.30;;;;;;5020903;28;20330;-82
2022/07/15 12:06:24;;;;;;;2.75;0.80;;;24.40;95.40;;;;;;5026127;28;20052;-83
2022/07/15 12:08:54;;;;;;;1.35;0.60;;;24.40;94.60;;;;;;5022630;28;20040;-80
2022/07/15 12:11:30;;;;;;;3.38;0.60;;;24.20;94.30;;;;;;5040218;28;20148;-82
2022/07/15 12:14:04;;;;;;;2.40;0.80;;;24.40;94.20;;;;;;5040586;28;20049;-81
2022/07/15 12:16:41;;;;;;;3.40;0.70;;;24.40;93.80;;;;;;5026016;28;20687;-82
2022/07/15 12:19:15;;;;;;;1.83;0.68;;;24.50;94.00;;;;;;5038332;28;20085;-83
2022/07/15 12:21:42;;;;;;;1.75;0.93;;;24.80;94.00;;;;;;5025175;28;20051;-82
2022/07/15 12:24:11;;;;;;;2.13;0.80;;;25.00;93.70;;;;;;5022029;28;20563;-82
2022/07/15 12:26:57;;;;;;;2.47;0.80;;;25.30;93.40;;;;;;5042079;28;20098;-83
2022/07/15 12:29:26;;;;;;;;;;;25.40;92.90;;;;;;5058120;28;20368;-83
2022/07/15 12:32:01;;;;;;;3.05;0.90;;;25.40;92.60;;;;;;5025252;28;19975;-83
2022/07/15 12:34:58;;;;;;;3.33;0.80;;;25.10;92.60;;;;;;5022948;28;20107;-83
2022/07/15 12:37:30;;;;;;;1.27;0.70;;;25.00;93.10;;;;;;5025013;28;20045;-83
2022/07/15 12:40:06;;;;;;;2.85;0.82;;;24.90;93.70;;;;;;5024510;28;20140;-84
2022/07/15 12:42:44;;;;;;;5.30;0.90;;;25.00;94.00;;;;;;5022878;28;20583;-82
2022/07/15 12:45:21;;;;;;;2.17;0.80;;;25.00;94.20;;;;;;5021731;28;20049;-80
2022/07/15 12:48:07;;;;;;;2.80;0.90;;;25.20;94.00;;;;;;5026553;28;20076;-81
2022/07/15 12:50:50;;;;;;;2.25;1.17;;;25.50;94.20;;;;;;5023916;28;20059;-81
2022/07/15 12:53:21;;;;;;;3.13;0.98;;;25.40;93.30;;;;;;5026571;28;20056;-80
2022/07/15 12:55:49;;;;;;;3.03;0.88;;;25.30;93.80;;;;;;5026343;28;20067;-80
2022/07/15 12:58:18;;;;;;;2.38;0.80;;;25.10;94.00;;;;;;5034845;28;20051;-81
2022/07/15 13:00:45;;;;;;;4.07;1.00;;;24.90;93.90;;;;;;5043771;28;20051;-81
2022/07/15 13:03:14;;;;;;;1.58;0.80;;;25.00;94.20;;;;;;5027030;28;20056;-81
2022/07/15 13:05:45;;;;;;;2.03;0.93;;;24.80;94.20;;;;;;5026608;28;20053;-81
2022/07/15 13:08:26;;;;;;;3.05;0.82;;;24.60;94.10;;;;;;5045580;28;20049;-81